Time;durP1;ratioP1;P1;durP2;ratioP2;P2;SDS_P1;SDS_P2;PMS_P1;PMS_P2;Temp;Humidity;BMP_temperature;BMP_pressure;BME280_temperature;BME280_humidity;BME280_pressure;Samples;Min_cycle;Max_cycle;Signal;HPM_P1;HPM_P2
2021/06/27 00:00:27;;;;;;;11.55;8.00;;;17.10;99.90;;;;;;5021849;28;20054;-63
2021/06/27 00:02:52;;;;;;;13.02;8.50;;;17.10;99.90;;;;;;5041090;28;20059;-64
2021/06/27 00:05:21;;;;;;;10.05;8.10;;;17.00;99.90;;;;;;5065125;28;20486;-61
2021/06/27 00:07:48;;;;;;;12.07;8.27;;;17.00;99.90;;;;;;5059614;28;20402;-61
2021/06/27 00:10:16;;;;;;;12.88;8.10;;;17.00;99.90;;;;;;5061501;28;20650;-64
2021/06/27 00:12:42;;;;;;;11.20;8.73;;;17.00;99.90;;;;;;5056589;28;20025;-64
2021/06/27 00:15:18;;;;;;;9.40;8.05;;;16.90;99.90;;;;;;5060610;28;20033;-64
2021/06/27 00:17:45;;;;;;;14.70;8.63;;;16.90;99.90;;;;;;5065424;28;20099;-63
2021/06/27 00:20:16;;;;;;;9.38;7.45;;;16.90;99.90;;;;;;5064664;28;20028;-65
2021/06/27 00:22:42;;;;;;;8.95;8.05;;;16.80;99.90;;;;;;5062422;28;20032;-64
2021/06/27 00:25:10;;;;;;;10.98;7.80;;;16.80;99.90;;;;;;5061637;28;20086;-63
2021/06/27 00:27:39;;;;;;;12.00;8.50;;;16.80;99.90;;;;;;5063004;28;20032;-64
2021/06/27 00:30:06;;;;;;;10.05;7.70;;;16.80;99.90;;;;;;5056851;28;20090;-64
2021/06/27 00:32:32;;;;;;;9.48;7.78;;;16.80;99.90;;;;;;5055219;28;20043;-65
2021/06/27 00:34:57;;;;;;;14.05;8.05;;;16.80;99.90;;;;;;5061672;28;20021;-64
2021/06/27 00:37:23;;;;;;;9.93;8.85;;;16.80;99.90;;;;;;5055058;28;20033;-64
2021/06/27 00:39:48;;;;;;;11.77;8.93;;;16.70;99.90;;;;;;5055645;28;20036;-64
2021/06/27 00:42:14;;;;;;;10.20;7.90;;;16.70;99.90;;;;;;5058802;28;20029;-65
2021/06/27 00:44:40;;;;;;;12.13;7.97;;;16.70;99.90;;;;;;5056082;28;20036;-65
2021/06/27 00:47:05;;;;;;;13.80;8.07;;;16.70;99.90;;;;;;5055888;28;20203;-64
2021/06/27 00:49:31;;;;;;;11.35;7.85;;;16.70;99.90;;;;;;5074803;28;20051;-63
2021/06/27 00:51:56;;;;;;;10.93;8.80;;;16.70;99.90;;;;;;5064664;28;20037;-65
2021/06/27 00:54:22;;;;;;;9.63;7.90;;;16.70;99.90;;;;;;5056229;28;20029;-64
2021/06/27 00:56:47;;;;;;;11.35;8.57;;;16.70;99.90;;;;;;5056366;28;20028;-63
2021/06/27 00:59:13;;;;;;;12.70;8.07;;;16.70;99.90;;;;;;5058539;28;20028;-63
2021/06/27 01:01:39;;;;;;;11.77;8.30;;;16.70;99.90;;;;;;5017451;28;20045;-65
2021/06/27 01:04:04;;;;;;;12.00;8.23;;;16.70;99.90;;;;;;5037769;28;20025;-64
2021/06/27 01:06:30;;;;;;;10.50;8.70;;;16.70;99.90;;;;;;5038227;28;20036;-63
2021/06/27 01:08:56;;;;;;;10.38;8.63;;;16.70;99.90;;;;;;5035273;28;20121;-61
2021/06/27 01:11:22;;;;;;;10.10;7.63;;;16.70;99.90;;;;;;5035994;28;20375;-64
2021/06/27 01:13:47;;;;;;;11.98;8.30;;;16.70;99.90;;;;;;5043579;28;20017;-63
2021/06/27 01:16:13;;;;;;;9.68;8.38;;;16.60;99.90;;;;;;5032629;28;20033;-63
2021/06/27 01:18:39;;;;;;;13.00;8.40;;;16.60;99.90;;;;;;5038085;28;20036;-64
2021/06/27 01:21:06;;;;;;;12.23;8.27;;;16.60;99.90;;;;;;5037687;28;20530;-63
2021/06/27 01:23:32;;;;;;;12.85;8.50;;;16.70;99.90;;;;;;5040280;28;20025;-64
2021/06/27 01:25:57;;;;;;;9.80;7.85;;;16.70;99.90;;;;;;5035836;28;20164;-62
2021/06/27 01:28:23;;;;;;;10.80;7.93;;;16.70;99.90;;;;;;5034760;28;20021;-60
2021/06/27 01:30:49;;;;;;;11.30;8.52;;;16.80;99.90;;;;;;5042156;28;20438;-63
2021/06/27 01:33:18;;;;;;;11.50;8.18;;;16.70;99.90;;;;;;5032940;28;20456;-64
2021/06/27 01:35:45;;;;;;;10.00;8.30;;;16.70;99.90;;;;;;5039297;28;20147;-63
2021/06/27 01:38:12;;;;;;;10.75;8.40;;;16.70;99.90;;;;;;5034022;28;20029;-63
2021/06/27 01:40:40;;;;;;;9.90;8.20;;;16.70;99.90;;;;;;5050956;28;20038;-65
2021/06/27 01:43:05;;;;;;;9.52;7.90;;;16.70;99.90;;;;;;5039910;28;20111;-63
2021/06/27 01:45:31;;;;;;;10.98;8.32;;;16.70;99.90;;;;;;5037131;28;20105;-63
2021/06/27 01:47:59;;;;;;;10.98;8.13;;;16.70;99.90;;;;;;5039980;28;20090;-62
2021/06/27 01:50:25;;;;;;;12.60;8.52;;;16.70;99.90;;;;;;5043280;28;20047;-63
2021/06/27 01:52:52;;;;;;;11.90;8.23;;;16.70;99.90;;;;;;5042439;28;20104;-63
2021/06/27 01:55:18;;;;;;;9.10;8.20;;;16.70;99.90;;;;;;5049260;28;20071;-64
2021/06/27 01:57:44;;;;;;;10.43;8.90;;;16.70;99.90;;;;;;5034226;28;20378;-63
2021/06/27 02:00:10;;;;;;;10.85;7.50;;;16.70;99.90;;;;;;5040303;28;20029;-61
2021/06/27 02:02:36;;;;;;;13.55;8.68;;;16.70;99.90;;;;;;5033065;28;20892;-62
2021/06/27 02:05:03;;;;;;;14.18;9.00;;;16.70;99.90;;;;;;5042030;28;20104;-64
2021/06/27 02:07:29;;;;;;;10.20;7.75;;;16.70;99.90;;;;;;5046231;28;20041;-63
2021/06/27 02:09:54;;;;;;;9.10;8.15;;;16.70;99.90;;;;;;5041966;28;20527;-64
2021/06/27 02:12:20;;;;;;;13.95;9.02;;;16.70;99.90;;;;;;5060318;28;20036;-62
2021/06/27 02:14:46;;;;;;;9.07;7.53;;;16.70;99.90;;;;;;5045680;28;20051;-64
2021/06/27 02:17:12;;;;;;;9.73;8.55;;;16.70;99.90;;;;;;5046295;28;20142;-63
2021/06/27 02:19:37;;;;;;;10.95;8.23;;;16.70;99.90;;;;;;5049259;28;20669;-63
2021/06/27 02:22:04;;;;;;;12.93;8.43;;;16.70;99.90;;;;;;5048792;28;20048;-65
2021/06/27 02:24:32;;;;;;;10.48;8.55;;;16.70;99.90;;;;;;5049216;28;20029;-63
2021/06/27 02:26:58;;;;;;;10.57;8.73;;;16.70;99.90;;;;;;5049660;28;20074;-63
2021/06/27 02:29:23;;;;;;;9.27;7.95;;;16.80;99.90;;;;;;5048768;28;20025;-64
2021/06/27 02:31:50;;;;;;;15.55;9.48;;;16.80;99.90;;;;;;5046244;28;20029;-63
2021/06/27 02:34:17;;;;;;;10.13;8.45;;;16.80;99.90;;;;;;5044104;28;20567;-63
2021/06/27 02:36:43;;;;;;;10.30;8.05;;;16.80;99.90;;;;;;5048583;28;20036;-63
2021/06/27 02:39:08;;;;;;;12.98;8.75;;;16.80;99.90;;;;;;5046877;28;20055;-63
2021/06/27 02:41:35;;;;;;;9.93;8.18;;;16.80;99.90;;;;;;5048813;28;20037;-64
2021/06/27 02:44:03;;;;;;;10.98;8.70;;;16.80;99.90;;;;;;5040890;28;20111;-63
2021/06/27 02:46:28;;;;;;;10.73;7.85;;;16.80;99.90;;;;;;5048332;28;20025;-64
2021/06/27 02:48:54;;;;;;;9.35;7.82;;;16.80;99.90;;;;;;5046072;28;20025;-63
2021/06/27 02:51:20;;;;;;;9.63;8.52;;;16.80;99.90;;;;;;5050221;28;20033;-64
2021/06/27 02:53:46;;;;;;;10.38;8.98;;;16.80;99.90;;;;;;5048277;28;20056;-63
2021/06/27 02:56:11;;;;;;;9.75;8.05;;;16.80;99.90;;;;;;5044845;28;20036;-63
2021/06/27 02:58:40;;;;;;;11.35;8.20;;;16.80;99.90;;;;;;5047846;28;20033;-65
2021/06/27 03:01:06;;;;;;;13.75;9.20;;;16.80;99.90;;;;;;5034395;28;20198;-63
2021/06/27 03:03:32;;;;;;;12.57;8.70;;;16.80;99.90;;;;;;5046032;28;20107;-61
2021/06/27 03:05:57;;;;;;;9.27;7.55;;;16.80;99.90;;;;;;5045901;28;20055;-63
2021/06/27 03:08:23;;;;;;;10.23;8.43;;;16.80;99.90;;;;;;5048323;28;20394;-60
2021/06/27 03:10:49;;;;;;;9.68;8.60;;;16.80;99.90;;;;;;5038423;28;20044;-63
2021/06/27 03:13:15;;;;;;;17.77;9.93;;;16.80;99.90;;;;;;5044171;28;20052;-62
2021/06/27 03:15:40;;;;;;;11.32;8.73;;;16.80;99.90;;;;;;5048365;28;20033;-64
2021/06/27 03:18:06;;;;;;;10.13;8.20;;;16.80;99.90;;;;;;5042348;28;20025;-64
2021/06/27 03:20:31;;;;;;;11.68;9.30;;;16.80;99.90;;;;;;5038984;28;20037;-64
2021/06/27 03:22:57;;;;;;;10.55;8.38;;;16.80;99.90;;;;;;5050447;28;20035;-63
2021/06/27 03:25:25;;;;;;;11.52;8.65;;;16.90;99.90;;;;;;5048776;28;20037;-63
2021/06/27 03:27:52;;;;;;;9.65;8.57;;;16.90;99.90;;;;;;5048013;28;20478;-63
2021/06/27 03:30:18;;;;;;;12.05;9.13;;;16.90;99.90;;;;;;5057552;28;20036;-63
2021/06/27 03:32:44;;;;;;;10.77;9.20;;;16.90;99.90;;;;;;5044954;28;20094;-61
2021/06/27 03:35:11;;;;;;;9.93;7.63;;;17.00;99.90;;;;;;5046114;28;20026;-65
2021/06/27 03:37:40;;;;;;;10.73;8.55;;;17.20;99.90;;;;;;5045647;28;20487;-64
2021/06/27 03:40:07;;;;;;;8.35;7.45;;;17.30;99.90;;;;;;5043645;28;20041;-64
2021/06/27 03:42:32;;;;;;;10.85;7.95;;;17.40;99.90;;;;;;5047838;28;20107;-64
2021/06/27 03:44:58;;;;;;;8.63;7.65;;;17.50;99.90;;;;;;5049241;28;20475;-64
2021/06/27 03:47:25;;;;;;;8.68;7.78;;;17.70;99.90;;;;;;5055924;28;20032;-64
2021/06/27 03:49:51;;;;;;;9.63;8.23;;;17.80;99.90;;;;;;5047957;28;20032;-62
2021/06/27 03:52:16;;;;;;;8.63;7.72;;;17.90;99.90;;;;;;5048716;28;20033;-64
2021/06/27 03:54:42;;;;;;;13.70;9.35;;;18.00;99.90;;;;;;5048204;28;20024;-64
2021/06/27 03:57:07;;;;;;;10.50;8.95;;;18.10;99.90;;;;;;5042733;28;20497;-63
2021/06/27 03:59:33;;;;;;;9.73;8.10;;;18.20;99.90;;;;;;5046729;28;20410;-64
2021/06/27 04:01:58;;;;;;;11.82;8.35;;;18.30;99.90;;;;;;5026167;28;20136;-64
2021/06/27 04:04:24;;;;;;;12.57;8.82;;;18.40;99.90;;;;;;5033437;28;20053;-61
2021/06/27 04:06:50;;;;;;;9.43;8.07;;;18.50;99.90;;;;;;5030407;28;20040;-64
2021/06/27 04:09:15;;;;;;;11.73;8.30;;;18.60;99.90;;;;;;5038108;28;20020;-64
2021/06/27 04:11:41;;;;;;;9.35;8.35;;;18.60;99.90;;;;;;5043726;28;20072;-64
2021/06/27 04:14:06;;;;;;;9.77;7.80;;;18.60;99.90;;;;;;5038351;28;20025;-63
2021/06/27 04:16:33;;;;;;;10.25;7.88;;;18.50;99.90;;;;;;5037857;28;20026;-63
2021/06/27 04:18:59;;;;;;;9.55;8.02;;;18.40;99.90;;;;;;5037449;28;20079;-59
2021/06/27 04:21:25;;;;;;;13.77;7.57;;;18.30;99.90;;;;;;5039973;28;20029;-64
2021/06/27 04:23:51;;;;;;;15.35;8.50;;;18.30;99.90;;;;;;5039394;28;20033;-64
2021/06/27 04:26:17;;;;;;;9.07;7.53;;;18.20;99.90;;;;;;5039018;28;20060;-63
2021/06/27 04:28:43;;;;;;;8.75;7.82;;;18.20;99.90;;;;;;5038417;28;20056;-64
2021/06/27 04:31:08;;;;;;;9.38;7.57;;;18.10;99.90;;;;;;5035533;28;20549;-64
2021/06/27 04:33:34;;;;;;;10.48;8.07;;;18.10;99.90;;;;;;5038004;28;20033;-65
2021/06/27 04:36:00;;;;;;;10.13;8.10;;;18.00;99.90;;;;;;5041791;28;20109;-63
2021/06/27 04:38:26;;;;;;;9.48;7.95;;;18.10;99.90;;;;;;5034224;28;20021;-63
2021/06/27 04:40:52;;;;;;;11.32;7.97;;;18.10;99.90;;;;;;5035846;28;20559;-63
2021/06/27 04:43:18;;;;;;;10.77;8.52;;;18.10;99.90;;;;;;5035006;28;20402;-61
2021/06/27 04:45:45;;;;;;;10.15;8.45;;;18.20;99.90;;;;;;5034544;28;20021;-64
2021/06/27 04:48:11;;;;;;;9.57;7.75;;;18.30;99.90;;;;;;5036594;28;20105;-65
2021/06/27 04:50:38;;;;;;;11.90;8.35;;;18.40;99.90;;;;;;5043916;28;20679;-64
2021/06/27 04:53:04;;;;;;;9.82;8.20;;;18.50;99.90;;;;;;5035045;28;20036;-65
2021/06/27 04:55:30;;;;;;;11.77;7.95;;;18.70;99.90;;;;;;5039854;28;21645;-64
2021/06/27 04:57:56;;;;;;;10.07;7.90;;;18.80;99.90;;;;;;5031694;28;20029;-64
2021/06/27 05:00:21;;;;;;;9.10;8.00;;;19.10;99.90;;;;;;5037133;28;20402;-63
2021/06/27 05:02:47;;;;;;;9.27;8.00;;;19.30;99.90;;;;;;5025796;28;20135;-63
2021/06/27 05:05:14;;;;;;;9.07;7.68;;;19.60;99.90;;;;;;5039655;28;20503;-64
2021/06/27 05:07:39;;;;;;;9.07;7.82;;;19.70;99.90;;;;;;5037171;28;20620;-63
2021/06/27 05:10:06;;;;;;;9.30;7.88;;;19.90;99.90;;;;;;5038653;28;20484;-63
2021/06/27 05:12:32;;;;;;;9.23;7.10;;;20.10;99.90;;;;;;5043126;28;20587;-64
2021/06/27 05:14:58;;;;;;;8.57;7.60;;;20.50;99.90;;;;;;5035075;28;20025;-63
2021/06/27 05:17:23;;;;;;;9.40;7.88;;;20.90;99.90;;;;;;5037912;28;20430;-64
2021/06/27 05:19:49;;;;;;;7.70;6.90;;;21.20;99.90;;;;;;5038210;28;20030;-60
2021/06/27 05:22:14;;;;;;;9.68;7.05;;;21.50;99.90;;;;;;5033429;28;20411;-65
2021/06/27 05:24:40;;;;;;;13.23;6.80;;;21.80;99.90;;;;;;5033692;28;20025;-64
2021/06/27 05:27:06;;;;;;;11.38;6.70;;;22.30;99.50;;;;;;5037323;28;20032;-65
2021/06/27 05:29:32;;;;;;;7.72;5.95;;;22.80;99.10;;;;;;5042005;28;20029;-63
2021/06/27 05:31:57;;;;;;;8.27;5.63;;;23.50;97.90;;;;;;5038885;28;20029;-65
2021/06/27 05:34:23;;;;;;;7.03;5.13;;;24.40;96.30;;;;;;5048308;28;21490;-62
2021/06/27 05:36:49;;;;;;;8.48;5.95;;;25.30;93.50;;;;;;5040096;28;20021;-64
2021/06/27 05:39:14;;;;;;;6.32;5.70;;;25.50;92.30;;;;;;5043560;28;20029;-64
2021/06/27 05:41:40;;;;;;;6.50;5.72;;;25.70;92.20;;;;;;5041930;28;20090;-65
2021/06/27 05:44:07;;;;;;;8.98;5.68;;;26.20;91.60;;;;;;5044337;28;20075;-66
2021/06/27 05:46:33;;;;;;;8.15;6.22;;;26.90;90.40;;;;;;5045960;28;20375;-65
2021/06/27 05:48:59;;;;;;;6.18;5.30;;;27.90;86.10;;;;;;5043263;28;20109;-63
2021/06/27 05:51:25;;;;;;;5.70;4.93;;;28.80;83.00;;;;;;5040537;28;20033;-65
2021/06/27 05:53:54;;;;;;;7.55;5.55;;;28.80;81.20;;;;;;5038218;28;20589;-63
2021/06/27 05:56:20;;;;;;;9.73;6.25;;;28.90;82.00;;;;;;5043077;28;20033;-65
2021/06/27 05:58:47;;;;;;;6.60;4.35;;;29.50;78.40;;;;;;5035331;28;20581;-65
2021/06/27 06:01:14;;;;;;;4.88;4.38;;;29.60;78.70;;;;;;5033560;28;20033;-66
2021/06/27 06:03:41;;;;;;;5.28;4.78;;;30.70;75.70;;;;;;5047601;28;20041;-65
2021/06/27 06:06:08;;;;;;;5.93;4.65;;;31.60;71.10;;;;;;5035690;28;20020;-64
2021/06/27 06:08:33;;;;;;;5.32;4.82;;;32.20;67.90;;;;;;5041365;28;21987;-65
2021/06/27 06:10:59;;;;;;;5.55;4.38;;;32.30;66.80;;;;;;5035648;28;20120;-65
2021/06/27 06:13:25;;;;;;;4.22;3.88;;;32.00;65.30;;;;;;5040073;28;20024;-66
2021/06/27 06:15:51;;;;;;;5.75;4.63;;;31.60;64.40;;;;;;5040516;28;20052;-64
2021/06/27 06:18:17;;;;;;;4.47;4.07;;;31.10;67.40;;;;;;5045163;28;20056;-65
2021/06/27 06:20:42;;;;;;;6.10;4.53;;;31.30;66.00;;;;;;5046868;28;20025;-65
2021/06/27 06:23:08;;;;;;;5.40;4.90;;;30.90;66.60;;;;;;5044861;28;20029;-65
2021/06/27 06:25:34;;;;;;;5.25;4.38;;;31.00;66.80;;;;;;5038357;28;20072;-64
2021/06/27 06:27:59;;;;;;;4.68;4.15;;;31.80;65.00;;;;;;5049222;28;20037;-65
2021/06/27 06:30:25;;;;;;;5.38;4.60;;;31.30;64.50;;;;;;5039691;28;20076;-64
2021/06/27 06:32:51;;;;;;;5.97;5.20;;;30.70;63.70;;;;;;5040351;28;20032;-65
2021/06/27 06:35:16;;;;;;;5.00;4.57;;;30.50;65.40;;;;;;5038847;28;20025;-65
2021/06/27 06:37:42;;;;;;;4.97;4.47;;;29.70;67.80;;;;;;5039214;28;20082;-66
2021/06/27 06:40:09;;;;;;;5.18;4.68;;;28.80;69.00;;;;;;5044107;28;20064;-64
2021/06/27 06:42:34;;;;;;;6.32;5.72;;;28.10;70.50;;;;;;5032862;28;20399;-66
2021/06/27 06:45:00;;;;;;;5.15;4.65;;;27.10;73.10;;;;;;5045050;28;20028;-64
2021/06/27 06:47:26;;;;;;;6.18;5.32;;;26.90;75.40;;;;;;5040235;28;20549;-65
2021/06/27 06:49:51;;;;;;;7.22;4.93;;;27.00;76.30;;;;;;5040045;28;20037;-65
2021/06/27 06:52:17;;;;;;;9.00;5.72;;;26.80;77.30;;;;;;5035800;28;20471;-61
2021/06/27 06:54:43;;;;;;;8.77;5.20;;;27.00;76.50;;;;;;5040338;28;20047;-64
2021/06/27 06:57:09;;;;;;;6.00;5.07;;;26.90;76.00;;;;;;5039605;28;20029;-65
2021/06/27 06:59:34;;;;;;;5.80;5.15;;;27.20;76.20;;;;;;5033747;28;20040;-65
2021/06/27 07:02:00;;;;;;;6.28;5.05;;;27.90;75.60;;;;;;5028005;28;20049;-64
2021/06/27 07:04:25;;;;;;;5.20;4.68;;;28.30;73.00;;;;;;5058468;28;20025;-61
2021/06/27 07:06:51;;;;;;;5.13;4.63;;;29.60;70.40;;;;;;5061418;28;20741;-64
2021/06/27 07:09:17;;;;;;;5.50;5.00;;;29.30;69.50;;;;;;5052521;28;20021;-66
2021/06/27 07:11:43;;;;;;;10.20;5.18;;;28.50;73.60;;;;;;5053464;28;20035;-64
2021/06/27 07:14:08;;;;;;;7.43;4.97;;;27.90;73.70;;;;;;5054395;28;20122;-64
2021/06/27 07:16:34;;;;;;;5.22;4.72;;;27.90;73.10;;;;;;5054350;28;20024;-64
2021/06/27 07:18:59;;;;;;;5.28;4.78;;;28.20;73.70;;;;;;5067656;28;20020;-64
2021/06/27 07:21:29;;;;;;;9.55;4.90;;;28.00;75.80;;;;;;5066542;28;20048;-64
2021/06/27 07:23:55;;;;;;;4.75;4.35;;;28.80;74.40;;;;;;5062513;28;20035;-66
2021/06/27 07:26:21;;;;;;;5.40;4.90;;;30.10;70.10;;;;;;5057345;28;20025;-64
2021/06/27 07:28:47;;;;;;;6.75;4.38;;;30.30;69.20;;;;;;5063825;28;20174;-65
2021/06/27 07:31:12;;;;;;;4.85;4.20;;;30.90;69.60;;;;;;5055370;28;20132;-66
2021/06/27 07:33:38;;;;;;;6.35;4.43;;;31.90;66.50;;;;;;5053025;28;20102;-65
2021/06/27 07:36:05;;;;;;;4.07;3.53;;;33.50;64.30;;;;;;5067764;28;20474;-64
2021/06/27 07:38:30;;;;;;;4.53;4.13;;;33.80;63.10;;;;;;5058137;28;20094;-65
2021/06/27 07:40:56;;;;;;;5.00;4.50;;;33.80;61.50;;;;;;5063072;28;20120;-65
2021/06/27 07:43:22;;;;;;;4.03;3.63;;;34.60;58.40;;;;;;5061156;28;20029;-64
2021/06/27 07:45:47;;;;;;;4.22;3.67;;;34.80;59.00;;;;;;5059015;28;20043;-64
2021/06/27 07:48:13;;;;;;;6.05;4.10;;;35.00;58.50;;;;;;5059963;28;20055;-66
2021/06/27 07:50:39;;;;;;;8.27;3.95;;;33.50;58.30;;;;;;5061124;28;20032;-65
2021/06/27 07:53:04;;;;;;;4.47;4.05;;;33.50;57.90;;;;;;5062560;28;20104;-65
2021/06/27 07:55:30;;;;;;;4.70;4.30;;;32.60;60.90;;;;;;5055046;28;20025;-64
2021/06/27 07:57:56;;;;;;;5.53;4.40;;;32.40;61.10;;;;;;5056616;28;20024;-63
2021/06/27 08:00:22;;;;;;;5.72;4.00;;;32.30;61.50;;;;;;5053622;28;20737;-64
2021/06/27 08:02:48;;;;;;;4.80;3.72;;;32.00;63.40;;;;;;5063722;28;20025;-64
2021/06/27 08:05:14;;;;;;;4.18;3.78;;;32.10;61.60;;;;;;5055650;28;20033;-65
2021/06/27 08:07:40;;;;;;;4.22;3.83;;;31.60;61.80;;;;;;5061563;28;20473;-65
2021/06/27 08:10:07;;;;;;;5.15;4.40;;;31.20;62.10;;;;;;5052808;28;20116;-64
2021/06/27 08:12:33;;;;;;;4.45;4.05;;;31.20;65.70;;;;;;5052355;28;20835;-67
2021/06/27 08:14:59;;;;;;;6.35;4.68;;;31.40;62.90;;;;;;5054438;28;20053;-64
2021/06/27 08:17:24;;;;;;;4.85;4.20;;;31.40;62.30;;;;;;5052402;28;20032;-64
2021/06/27 08:19:50;;;;;;;4.65;4.20;;;30.80;64.50;;;;;;5054034;28;20486;-64
2021/06/27 08:22:16;;;;;;;4.13;3.72;;;30.60;63.60;;;;;;5055466;28;20021;-65
2021/06/27 08:24:42;;;;;;;6.32;4.25;;;31.10;63.50;;;;;;5053519;28;20460;-65
2021/06/27 08:27:08;;;;;;;4.97;4.25;;;31.30;62.10;;;;;;5057927;28;20124;-64
2021/06/27 08:29:34;;;;;;;8.98;4.22;;;31.60;63.20;;;;;;5058919;28;20181;-64
2021/06/27 08:32:00;;;;;;;4.68;4.28;;;31.90;62.20;;;;;;5052916;28;21261;-64
2021/06/27 08:34:25;;;;;;;4.35;3.80;;;32.30;60.90;;;;;;5063707;28;20602;-63
2021/06/27 08:36:51;;;;;;;4.30;3.90;;;32.70;60.50;;;;;;5054169;28;20029;-65
2021/06/27 08:39:17;;;;;;;4.90;4.10;;;32.90;60.60;;;;;;5054904;28;20036;-65
2021/06/27 08:41:42;;;;;;;4.95;4.07;;;32.90;60.70;;;;;;5059611;28;20046;-62
2021/06/27 08:44:12;;;;;;;5.05;4.15;;;33.50;60.80;;;;;;5059305;28;20040;-63
2021/06/27 08:46:41;;;;;;;4.53;4.05;;;33.80;59.30;;;;;;5057221;28;20024;-65
2021/06/27 08:49:08;;;;;;;4.45;3.60;;;34.00;58.70;;;;;;5052048;28;20509;-64
2021/06/27 08:51:41;;;;;;;4.15;3.75;;;34.60;56.90;;;;;;5050687;28;20044;-66
2021/06/27 08:54:08;;;;;;;5.05;4.03;;;34.40;56.30;;;;;;5052225;28;20103;-64
2021/06/27 08:56:35;;;;;;;4.25;3.85;;;34.80;56.70;;;;;;5055938;28;20035;-65
2021/06/27 08:59:01;;;;;;;4.07;3.75;;;34.50;56.80;;;;;;5060090;28;20020;-65
2021/06/27 09:01:27;;;;;;;4.18;3.78;;;33.80;56.40;;;;;;5055304;28;20033;-64
2021/06/27 09:03:55;;;;;;;3.97;3.60;;;34.20;56.10;;;;;;5068713;28;20029;-64
2021/06/27 09:06:38;;;;;;;4.55;3.20;;;34.90;55.20;;;;;;5063512;28;20056;-65
2021/06/27 09:09:12;;;;;;;4.20;3.78;;;35.00;54.50;;;;;;5056832;28;20115;-66
2021/06/27 09:11:54;;;;;;;3.75;3.25;;;34.90;54.90;;;;;;5064893;28;20039;-64
2021/06/27 09:14:36;;;;;;;7.13;3.50;;;35.00;54.80;;;;;;5064695;28;20029;-66
2021/06/27 09:17:15;;;;;;;4.38;3.42;;;35.50;53.90;;;;;;5063299;28;20044;-65
2021/06/27 09:19:56;;;;;;;3.65;3.35;;;35.60;53.30;;;;;;5062740;28;20032;-66
2021/06/27 09:22:24;;;;;;;3.33;3.03;;;36.00;54.40;;;;;;5063837;28;20025;-65
2021/06/27 09:24:50;;;;;;;3.47;3.17;;;35.30;53.60;;;;;;5061195;28;20082;-65
2021/06/27 09:27:20;;;;;;;5.65;3.33;;;35.20;55.70;;;;;;5064621;28;20035;-64
2021/06/27 09:29:46;;;;;;;4.60;3.75;;;35.80;55.50;;;;;;5060378;28;20428;-65
2021/06/27 09:32:20;;;;;;;3.53;3.22;;;36.00;52.80;;;;;;5063188;28;20028;-63
2021/06/27 09:34:47;;;;;;;3.35;3.05;;;36.20;51.90;;;;;;5065241;28;20024;-66
2021/06/27 09:37:14;;;;;;;3.83;3.42;;;35.80;53.10;;;;;;5067128;28;20074;-65
2021/06/27 09:40:01;;;;;;;3.22;2.92;;;35.80;52.00;;;;;;5070025;28;20031;-65
2021/06/27 09:42:30;;;;;;;3.60;3.30;;;35.60;51.00;;;;;;5060464;28;20378;-61
2021/06/27 09:45:00;;;;;;;5.63;3.60;;;35.60;52.60;;;;;;5064138;28;20036;-66
2021/06/27 09:47:26;;;;;;;3.40;3.10;;;35.10;52.10;;;;;;5065858;28;20013;-64
2021/06/27 09:49:52;;;;;;;4.45;3.20;;;34.80;52.70;;;;;;5055940;28;20339;-65
2021/06/27 09:52:35;;;;;;;3.42;3.13;;;35.30;53.60;;;;;;5053843;28;20037;-66
2021/06/27 09:55:13;;;;;;;3.20;2.90;;;34.90;51.50;;;;;;5063268;28;20029;-66
2021/06/27 09:57:40;;;;;;;5.55;3.00;;;34.80;54.50;;;;;;5064922;28;20017;-65
2021/06/27 10:00:26;;;;;;;3.35;3.03;;;35.40;51.60;;;;;;5064906;28;20028;-63
2021/06/27 10:02:59;;;;;;;4.82;3.20;;;35.40;52.70;;;;;;5070413;28;20037;-64
2021/06/27 10:05:26;;;;;;;3.33;2.95;;;34.90;52.30;;;;;;5063712;28;20242;-65
2021/06/27 10:07:52;;;;;;;3.25;2.90;;;35.30;54.60;;;;;;5067013;28;20059;-66
2021/06/27 10:10:21;;;;;;;3.55;3.25;;;35.40;51.10;;;;;;5068633;28;20107;-65
2021/06/27 10:12:47;;;;;;;3.30;3.00;;;34.70;51.30;;;;;;5062099;28;20159;-62
2021/06/27 10:15:15;;;;;;;3.58;3.13;;;33.50;55.30;;;;;;5068431;28;20616;-66
2021/06/27 10:17:42;;;;;;;3.65;3.25;;;33.30;54.60;;;;;;5068701;28;20023;-65
2021/06/27 10:20:11;;;;;;;3.63;3.33;;;33.20;52.80;;;;;;5068466;28;20028;-66
2021/06/27 10:22:37;;;;;;;3.78;3.08;;;33.20;55.60;;;;;;5065060;28;20501;-65
2021/06/27 10:25:06;;;;;;;4.93;4.03;;;33.40;56.50;;;;;;5069188;28;20029;-65
2021/06/27 10:27:33;;;;;;;6.90;4.80;;;33.00;55.60;;;;;;5063810;28;20032;-64
2021/06/27 10:30:00;;;;;;;4.55;4.15;;;32.80;57.30;;;;;;5069836;28;20213;-65
2021/06/27 10:32:27;;;;;;;5.93;3.58;;;32.60;55.20;;;;;;5067308;28;20513;-59
2021/06/27 10:34:55;;;;;;;6.22;3.67;;;32.30;56.80;;;;;;5065431;28;20115;-65
2021/06/27 10:37:33;;;;;;;3.97;3.58;;;32.00;58.80;;;;;;5066186;28;20040;-65
2021/06/27 10:40:19;;;;;;;4.32;3.85;;;32.00;59.50;;;;;;5068389;28;20012;-66
2021/06/27 10:42:50;;;;;;;4.78;4.35;;;32.00;59.30;;;;;;5063415;28;20021;-64
2021/06/27 10:45:18;;;;;;;6.47;3.85;;;31.50;59.30;;;;;;5063615;28;20516;-65
2021/06/27 10:47:45;;;;;;;4.30;3.90;;;31.60;59.00;;;;;;5060062;28;20067;-64
2021/06/27 10:50:12;;;;;;;7.07;4.10;;;31.40;59.00;;;;;;5066542;28;20505;-65
2021/06/27 10:52:57;;;;;;;5.03;3.25;;;31.20;58.00;;;;;;5065486;28;20060;-64
2021/06/27 10:55:22;;;;;;;4.72;3.90;;;31.00;57.60;;;;;;5066440;28;20490;-65
2021/06/27 10:58:04;;;;;;;4.53;3.90;;;30.90;59.40;;;;;;5053380;28;20033;-65
2021/06/27 11:00:55;;;;;;;4.40;3.45;;;30.90;58.40;;;;;;5067295;28;20037;-64
2021/06/27 11:03:27;;;;;;;5.13;3.53;;;30.70;60.10;;;;;;5054114;28;20456;-65
2021/06/27 11:05:58;;;;;;;4.38;3.63;;;30.90;59.90;;;;;;5062257;28;20032;-65
2021/06/27 11:08:40;;;;;;;4.25;3.85;;;31.00;60.20;;;;;;5061522;28;20036;-66
2021/06/27 11:11:21;;;;;;;3.80;3.40;;;30.80;61.20;;;;;;5064225;28;20033;-64
2021/06/27 11:14:16;;;;;;;3.53;3.22;;;30.40;59.90;;;;;;5062761;28;20020;-66
2021/06/27 11:16:59;;;;;;;4.47;3.58;;;29.90;58.50;;;;;;5057781;28;20017;-63
2021/06/27 11:19:36;;;;;;;4.80;3.58;;;29.50;59.60;;;;;;5062469;28;20020;-66
2021/06/27 11:22:20;;;;;;;10.73;4.05;;;29.60;61.60;;;;;;5051853;28;20033;-65
2021/06/27 11:24:49;;;;;;;3.28;2.97;;;29.70;60.40;;;;;;5064984;28;20048;-65
2021/06/27 11:27:33;;;;;;;5.05;3.40;;;29.80;60.70;;;;;;5057810;28;20040;-65
2021/06/27 11:30:00;;;;;;;10.20;3.58;;;29.70;60.30;;;;;;5062586;28;20060;-65
2021/06/27 11:32:26;;;;;;;4.93;3.65;;;29.40;59.30;;;;;;5056930;28;20032;-60
2021/06/27 11:34:57;;;;;;;5.65;3.25;;;29.40;60.80;;;;;;5066133;28;20424;-65
2021/06/27 11:37:23;;;;;;;6.80;3.15;;;29.20;59.90;;;;;;5055087;28;20036;-67
2021/06/27 11:39:54;;;;;;;3.85;3.38;;;29.20;60.70;;;;;;5061368;28;20043;-65
2021/06/27 11:42:31;;;;;;;4.93;2.97;;;29.90;63.20;;;;;;5066963;28;20036;-65
2021/06/27 11:45:08;;;;;;;3.60;3.30;;;30.40;61.40;;;;;;5064664;28;20044;-66
2021/06/27 11:47:36;;;;;;;5.32;2.88;;;30.80;61.00;;;;;;5061697;28;20016;-65
2021/06/27 11:50:24;;;;;;;4.70;2.83;;;31.10;57.60;;;;;;5061443;28;20056;-65
2021/06/27 11:52:51;;;;;;;3.92;2.80;;;31.20;58.60;;;;;;5063307;28;20029;-65
2021/06/27 11:55:17;;;;;;;3.20;2.88;;;31.20;57.00;;;;;;5059104;28;20070;-66
2021/06/27 11:57:44;;;;;;;4.80;3.20;;;31.10;58.70;;;;;;5066578;28;20405;-65
2021/06/27 12:00:11;;;;;;;3.65;2.97;;;31.10;58.40;;;;;;5060120;28;20024;-65
2021/06/27 12:02:38;;;;;;;3.00;2.70;;;30.80;58.30;;;;;;5050305;28;20567;-65
2021/06/27 12:05:15;;;;;;;4.53;3.10;;;30.80;59.00;;;;;;5047045;28;20076;-67
2021/06/27 12:07:45;;;;;;;2.83;2.58;;;30.90;58.90;;;;;;5053445;28;20512;-66
2021/06/27 12:10:20;;;;;;;3.55;3.25;;;31.10;59.00;;;;;;5055062;28;20037;-65
2021/06/27 12:12:51;;;;;;;3.70;3.22;;;31.20;59.00;;;;;;5057178;28;20024;-64
2021/06/27 12:15:18;;;;;;;4.18;2.85;;;30.90;57.90;;;;;;5057462;28;20055;-67
2021/06/27 12:17:45;;;;;;;3.42;3.13;;;30.80;58.90;;;;;;5056927;28;20119;-65
2021/06/27 12:20:14;;;;;;;4.75;3.53;;;30.90;58.40;;;;;;5062848;28;20082;-64
2021/06/27 12:22:53;;;;;;;3.20;2.90;;;31.00;60.60;;;;;;5062385;28;20486;-65
2021/06/27 12:25:47;;;;;;;7.18;3.20;;;30.80;59.40;;;;;;5065691;28;20033;-64
2021/06/27 12:28:18;;;;;;;3.83;3.40;;;30.70;58.70;;;;;;5059521;28;20037;-64
2021/06/27 12:30:55;;;;;;;3.55;3.25;;;30.90;58.20;;;;;;5060848;28;20029;-64
2021/06/27 12:33:35;;;;;;;7.05;3.55;;;31.10;60.40;;;;;;5055142;28;20083;-64
2021/06/27 12:36:11;;;;;;;4.70;3.20;;;31.10;59.50;;;;;;5056093;28;20167;-64
2021/06/27 12:38:39;;;;;;;4.20;2.85;;;31.10;59.40;;;;;;5061472;28;20028;-65
2021/06/27 12:41:06;;;;;;;3.85;3.10;;;31.20;58.50;;;;;;5055848;28;20063;-65
2021/06/27 12:43:35;;;;;;;4.68;3.92;;;31.20;57.20;;;;;;5061998;28;20449;-65
2021/06/27 12:46:10;;;;;;;5.68;3.20;;;31.20;57.70;;;;;;5061470;28;20036;-65